Chlef Aboubakr Belkaid International Airport

DAOI · Chlef, 阿尔及利亚

METAR的历史 DAOI · Ech Cheliff Airport

下面你可以看到过去几天的METARs。 选择年份以浏览从2007年开始的旧METAR。

2022年12月6日

时间 代码 天气 温度 能见度 天花板 METAR/SPECI
11:00
M
16 °C 7 km - 080° 080° 4 kt METAR DAOI 061000Z 08004KT 7000 SCT030 SCT100 16/12 Q1017
10:00
M
16 °C 6 km - 240° 240° 4 kt METAR DAOI 060900Z 24004KT 6000 -RA SCT030 SCT100 16/12 Q1017
09:00
M
15 °C 6 km - 260° 260° 4 kt METAR DAOI 060800Z 26004KT 6000 -RA SCT030 SCT100 15/10 Q1016
08:00
I
15 °C 4 km - 270° 270° 7 kt METAR DAOI 060700Z 27007KT 4000 HZ SCT030 15/06 Q1015
07:00
I
16 °C 3 km - 240° 240° 5 kt METAR DAOI 060600Z 24005KT 3000 HZ NSC 16/05 Q1015
06:00
I
16 °C 4 km - 060° 060° 4 kt METAR DAOI 060500Z 06004KT 4000 HZ NSC 16/04 Q1013
05:00
I
17 °C 4 km - 060° 060° 4 kt METAR DAOI 060400Z 06004KT 4000 HZ NSC 17/04 Q1013
04:00
I
17 °C 4 km - 060° 060° 3 kt METAR DAOI 060300Z 06003KT 4000 HZ NSC 17/04 Q1013
03:00
I
18 °C 4 km - 280° 280° 3 kt METAR DAOI 060200Z 28003KT 4000 HZ NSC 18/03 Q1013
02:00
I
19 °C 4 km - 270° 270° 4 kt METAR DAOI 060100Z 27004KT 4000 HZ FEW026 SCT100 19/03 Q1013
01:00
I
20 °C 4 km - 240° 240° 3 kt METAR DAOI 060000Z 24003KT 4000 HZ FEW026 SCT100 20/03 Q1013
00:00
M
19 °C 6 km - Var 000° 0 kt METAR DAOI 052300Z 00000KT 6000 FEW026 SCT100 19/03 Q1013

2022年12月5日

时间 代码 天气 温度 能见度 天花板 METAR/SPECI
23:00
M
20 °C 6 km - 060° 060° 3 kt METAR DAOI 052200Z 06003KT 6000 FEW026 20/02 Q1013
22:00
V
20 °C 8 km - 040° 040° 3 kt METAR DAOI 052100Z 04003KT 8000 FEW026 20/03 Q1013
21:00
V
21 °C 9 km - 060° 060° 6 kt METAR DAOI 052000Z 06006KT 9000 FEW026 21/01 Q1013
20:00
V
21 °C 10 km+ - 040° 040° 6 kt METAR DAOI 051900Z 04006KT 9999 FEW026 21/02 Q1012
19:00
V
18 °C 10 km+ - 020° 020° 3 kt METAR DAOI 051800Z 02003KT CAVOK 18/05 Q1012
18:00
V
20 °C 10 km+ - 040° 040° 4 kt METAR DAOI 051700Z 04004KT CAVOK 20/02 Q1012
17:00
V
23 °C 10 km+ - 220° 220° 6 kt METAR DAOI 051600Z 22006KT CAVOK 23/01 Q1013
16:00
V
24 °C 10 km+ - 220° 220° 5 kt METAR DAOI 051500Z 22005KT CAVOK 24/01 Q1013
15:00
V
24 °C 10 km+ - 220° 220° 3 kt METAR DAOI 051400Z 22003KT 9999 FEW026 SCT233 24/02 Q1013
14:00
V
22 °C 10 km+ - 240° 240° 5 kt METAR DAOI 051300Z 24005KT 9999 FEW026 SCT100 22/02 Q1014
13:00
V
21 °C 10 km+ - 060° 060° 3 kt METAR DAOI 051200Z 06003KT 9999 FEW026 SCT100 21/02 Q1015
12:00
V
19 °C 10 km+ - 060° 060° 7 kt METAR DAOI 051100Z 06007KT 9999 FEW026 SCT233 19/02 Q1016
11:00
V
18 °C 10 km+ - 060° 060° 9 kt METAR DAOI 051000Z 06009KT CAVOK 18/03 Q1016
10:00
V
16 °C 10 km+ - 070° 070° 6 kt METAR DAOI 050900Z 07006KT CAVOK 16/03 Q1016
09:00
V
15 °C 10 km+ - 080° 080° 9 kt METAR DAOI 050800Z 08009KT 9999 FEW030 SCT100 15/02 Q1016
08:00
V
15 °C 10 km+ - 080° 080° 8 kt METAR DAOI 050700Z 08008KT 9999 FEW030 SCT100 15/02 Q1016
07:00
V
15 °C 10 km+ - 040° 040° 6 kt METAR DAOI 050600Z 04006KT CAVOK 15/02 Q1015
06:00
V
15 °C 10 km+ - 040° 040° 8 kt METAR DAOI 050500Z 04008KT CAVOK 15/01 Q1015
05:00
V
15 °C 10 km+ - 050° 050° 5 kt METAR DAOI 050400Z 05005KT CAVOK 15/01 Q1016
04:00
V
15 °C 10 km+ - 050° 050° 5 kt METAR DAOI 050300Z 05005KT CAVOK 15/01 Q1016
03:00
V
15 °C 10 km+ - 030° 030° 4 kt METAR DAOI 050200Z 03004KT CAVOK 15/01 Q1015
02:00
V
14 °C 10 km+ - Var 000° 0 kt METAR DAOI 050100Z 00000KT CAVOK 14/02 Q1015
01:00
V
13 °C 10 km+ - 040° 040° 3 kt METAR DAOI 050000Z 04003KT CAVOK 13/02 Q1015
00:00
V
14 °C 10 km+ - Var 000° 0 kt METAR DAOI 042300Z 00000KT CAVOK 14/02 Q1015

2022年12月4日

时间 代码 天气 温度 能见度 天花板 METAR/SPECI
23:00
V
15 °C 10 km+ - Var 000° 0 kt METAR DAOI 042200Z 00000KT CAVOK 15/02 Q1015
22:00
V
16 °C 10 km+ - 060° 060° 6 kt METAR DAOI 042100Z 06006KT CAVOK 16/03 Q1015
21:00
V
17 °C 10 km+ - 050° 050° 6 kt METAR DAOI 042000Z 05006KT CAVOK 17/02 Q1014
20:00
V
18 °C 10 km+ - 040° 040° 5 kt METAR DAOI 041900Z 04005KT CAVOK 18/02 Q1014
19:00
V
17 °C 10 km+ - 040° 040° 6 kt METAR DAOI 041800Z 04006KT CAVOK 17/03 Q1013
18:00
V
19 °C 10 km+ - 320° 320° 3 kt METAR DAOI 041700Z 32003KT CAVOK 19/02 Q1013
17:00
V
22 °C 10 km+ - 240° 240° 4 kt METAR DAOI 041600Z 24004KT CAVOK 22/02 Q1012
16:00
V
23 °C 10 km+ - 260° 260° 4 kt METAR DAOI 041500Z 26004KT CAVOK 23/01 Q1012
15:00
V
22 °C 10 km+ - 240° 240° 6 kt METAR DAOI 041400Z 24006KT CAVOK 22/01 Q1013
14:00
V
21 °C 10 km+ - 200° 200° 4 kt METAR DAOI 041300Z 20004KT CAVOK 21/01 Q1013
13:00
V
20 °C 10 km+ - Var 000° 0 kt METAR DAOI 041200Z 00000KT CAVOK 20/02 Q1013
12:00
V
17 °C 10 km+ - 060° 060° 6 kt METAR DAOI 041100Z 06006KT CAVOK 17/04 Q1014
11:00
V
14 °C 10 km+ - 060° 060° 6 kt METAR DAOI 041000Z 06006KT CAVOK 14/06 Q1014

我们和第三方通过cookies跟踪您在我们网站上的互联网行为。如果你继续,我们认为你同意我们的饼干政策